createdAt,value
2018-04-26T00:00:54.474Z,9.70
2018-04-26T00:03:22.015Z,7.73
2018-04-26T00:05:49.574Z,8.27
2018-04-26T00:08:17.115Z,7.27
2018-04-26T00:10:44.692Z,7.70
2018-04-26T00:13:12.241Z,5.70
2018-04-26T00:15:39.794Z,5.67
2018-04-26T00:18:07.336Z,5.10
2018-04-26T00:20:35.643Z,5.73
2018-04-26T00:23:03.204Z,5.23
2018-04-26T00:25:30.741Z,5.78
2018-04-26T00:27:59.058Z,5.83
2018-04-26T00:30:26.602Z,5.00
2018-04-26T00:32:54.160Z,5.67
2018-04-26T00:35:21.693Z,5.23
2018-04-26T00:37:50.034Z,5.03
2018-04-26T00:40:17.554Z,6.00
2018-04-26T00:42:45.098Z,5.00
2018-04-26T00:45:12.644Z,5.23
2018-04-26T00:47:40.929Z,4.87
2018-04-26T00:50:09.231Z,5.03
2018-04-26T00:52:36.745Z,4.90
2018-04-26T00:55:04.301Z,5.10
2018-04-26T00:57:31.839Z,5.20
2018-04-26T00:59:59.391Z,4.70
2018-04-26T01:02:26.931Z,4.50
2018-04-26T01:04:54.494Z,5.27
2018-04-26T01:07:22.045Z,4.70
2018-04-26T01:09:49.602Z,4.67
2018-04-26T01:12:17.150Z,4.23
2018-04-26T01:14:44.704Z,3.60
2018-04-26T01:17:13.009Z,3.90
2018-04-26T01:19:40.560Z,4.00
2018-04-26T01:22:08.146Z,4.70
2018-04-26T01:24:35.681Z,4.63
2018-04-26T01:27:03.226Z,2.70
2018-04-26T01:29:30.778Z,2.40
2018-04-26T01:31:59.114Z,2.53
2018-04-26T01:34:26.654Z,2.60
2018-04-26T01:37:06.054Z,2.33
2018-04-26T01:39:34.351Z,2.37
2018-04-26T01:42:01.890Z,2.30
2018-04-26T01:44:30.197Z,2.47
2018-04-26T01:46:57.737Z,1.70
2018-04-26T01:49:25.278Z,2.20
2018-04-26T01:51:53.585Z,2.17
2018-04-26T01:54:21.137Z,2.40
2018-04-26T01:56:48.670Z,1.90
2018-04-26T01:59:16.994Z,1.70
2018-04-26T02:01:44.536Z,2.12
2018-04-26T02:04:12.070Z,1.87
2018-04-26T02:06:40.412Z,2.40
2018-04-26T02:09:07.958Z,1.93
2018-04-26T02:11:35.488Z,1.70
2018-04-26T02:14:03.061Z,1.87
2018-04-26T02:16:30.590Z,2.10
2018-04-26T02:18:58.891Z,2.27
2018-04-26T02:21:26.452Z,2.70
2018-04-26T02:23:53.990Z,2.50
2018-04-26T02:26:22.292Z,2.37
2018-04-26T02:28:49.842Z,2.17
2018-04-26T02:31:17.370Z,2.33
2018-04-26T02:33:44.933Z,2.40
2018-04-26T02:36:13.258Z,2.27
2018-04-26T02:38:40.798Z,3.23
2018-04-26T02:41:08.354Z,1.93
2018-04-26T02:43:35.917Z,2.40
2018-04-26T02:46:03.451Z,2.13
2018-04-26T02:48:31.755Z,2.73
2018-04-26T02:50:59.303Z,2.60
2018-04-26T02:53:27.624Z,2.60
2018-04-26T02:55:55.148Z,2.80
2018-04-26T02:58:22.705Z,3.40
2018-04-26T03:00:50.242Z,2.90
2018-04-26T03:03:18.557Z,3.03
2018-04-26T03:05:46.116Z,3.33
2018-04-26T03:08:13.705Z,7.50
2018-04-26T03:10:41.221Z,3.60
2018-04-26T03:13:08.795Z,3.10
2018-04-26T03:15:36.339Z,3.20
2018-04-26T03:18:04.642Z,4.00
2018-04-26T03:20:32.214Z,3.83
2018-04-26T03:22:59.731Z,3.60
2018-04-26T03:25:28.044Z,3.07
2018-04-26T03:27:55.606Z,3.13
2018-04-26T03:30:23.131Z,3.37
2018-04-26T03:32:50.670Z,4.00
2018-04-26T03:35:18.226Z,3.00
2018-04-26T03:37:45.771Z,3.70
2018-04-26T03:40:13.288Z,4.97
2018-04-26T03:42:40.853Z,3.57
2018-04-26T03:45:08.388Z,2.97
2018-04-26T03:47:35.929Z,3.30
2018-04-26T03:50:03.506Z,3.80
2018-04-26T03:52:31.816Z,3.30
2018-04-26T03:54:59.360Z,3.80
2018-04-26T03:57:26.904Z,4.17
2018-04-26T04:00:06.407Z,3.90
2018-04-26T04:02:45.814Z,3.93
2018-04-26T04:05:25.306Z,4.13
2018-04-26T04:07:53.620Z,4.10
2018-04-26T04:10:21.174Z,4.63
2018-04-26T04:12:48.709Z,4.70
2018-04-26T04:15:17.056Z,5.27
2018-04-26T04:17:44.595Z,3.90
2018-04-26T04:20:12.126Z,4.10
2018-04-26T04:22:39.711Z,5.53
2018-04-26T04:25:07.245Z,4.90
2018-04-26T04:27:34.764Z,4.97
2018-04-26T04:30:02.308Z,5.43
2018-04-26T04:32:29.832Z,5.83
2018-04-26T04:34:57.356Z,5.27
2018-04-26T04:37:25.679Z,6.60
2018-04-26T04:39:53.222Z,6.30
2018-04-26T04:42:20.766Z,6.90
2018-04-26T04:44:49.067Z,6.23
2018-04-26T04:47:16.626Z,5.97
2018-04-26T04:49:45.006Z,6.93
2018-04-26T04:52:12.542Z,5.40
2018-04-26T04:54:40.874Z,5.50
2018-04-26T04:57:08.454Z,8.23
2018-04-26T04:59:35.971Z,5.97
2018-04-26T05:02:03.515Z,4.60
2018-04-26T05:04:31.046Z,6.57
2018-04-26T05:06:59.380Z,5.13
2018-04-26T05:09:26.926Z,5.87
2018-04-26T05:11:54.487Z,5.73
2018-04-26T05:14:22.019Z,5.77
2018-04-26T07:23:28.454Z,3.80
2018-04-26T07:25:55.997Z,4.60
2018-04-26T07:28:23.569Z,3.73
2018-04-26T07:30:51.136Z,3.60
2018-04-26T07:33:18.703Z,3.80
2018-04-26T07:35:47.036Z,4.57
2018-04-26T07:38:14.590Z,3.90
2018-04-26T07:40:42.155Z,3.87
2018-04-26T07:43:09.712Z,3.10
2018-04-26T07:45:37.276Z,3.80
2018-04-26T07:48:04.833Z,3.17
2018-04-26T07:50:32.414Z,3.40
2018-04-26T07:53:00.019Z,3.40
2018-04-26T07:55:27.591Z,3.97
2018-04-26T07:57:55.891Z,3.60
2018-04-26T08:00:23.483Z,4.90
2018-04-26T08:02:51.040Z,6.03
2018-04-26T08:05:18.583Z,5.37
2018-04-26T08:07:46.149Z,5.33
2018-04-26T08:10:13.714Z,4.53
2018-04-26T08:12:41.307Z,4.93
2018-04-26T08:15:08.894Z,5.13
2018-04-26T08:17:36.444Z,6.47
2018-04-26T08:20:04.014Z,6.87
2018-04-26T08:22:32.448Z,4.87
2018-04-26T08:25:00.022Z,4.60
2018-04-26T08:27:27.588Z,5.57
2018-04-26T08:29:55.168Z,5.03
2018-04-26T08:32:23.505Z,4.90
2018-04-26T08:34:51.061Z,5.07
2018-04-26T08:37:18.656Z,5.07
2018-04-26T08:39:46.252Z,6.07
2018-04-26T08:42:13.790Z,6.30
2018-04-26T08:44:42.136Z,6.13
2018-04-26T08:47:09.696Z,6.70
2018-04-26T08:49:37.266Z,5.30
2018-04-26T08:52:04.852Z,5.30
2018-04-26T08:54:32.417Z,5.93
2018-04-26T08:57:00.695Z,7.00
2018-04-26T08:59:28.305Z,7.67
2018-04-26T09:01:55.923Z,7.63
2018-04-26T09:04:23.485Z,7.27
2018-04-26T09:06:51.153Z,7.80
2018-04-26T09:09:18.628Z,8.53
2018-04-26T09:11:46.199Z,8.37
2018-04-26T09:14:13.797Z,9.67
2018-04-26T09:16:41.406Z,8.93
2018-04-26T09:19:08.991Z,9.93
2018-04-26T09:21:36.614Z,8.90
2018-04-26T09:24:04.166Z,7.60
2018-04-26T09:26:31.738Z,9.07
2018-04-26T09:28:59.372Z,9.60
2018-04-26T09:31:26.949Z,10.40
2018-04-26T09:33:54.514Z,9.60
2018-04-26T09:36:22.137Z,11.57
2018-04-26T09:38:49.837Z,11.13
2018-04-26T09:41:18.128Z,11.43
2018-04-26T09:43:45.737Z,10.70
2018-04-26T09:46:13.331Z,10.03
2018-04-26T09:48:40.935Z,10.07
2018-04-26T09:51:08.513Z,9.13
2018-04-26T09:53:36.073Z,9.13
2018-04-26T09:56:03.611Z,8.83
2018-04-26T09:58:31.251Z,9.53
2018-04-26T10:00:58.801Z,8.70
2018-04-26T10:03:27.164Z,10.37
2018-04-26T10:05:57.563Z,10.10
2018-04-26T10:08:25.153Z,9.70
2018-04-26T10:10:52.701Z,9.20
2018-04-26T10:13:21.036Z,9.77
2018-04-26T10:15:48.578Z,9.07
2018-04-26T10:18:16.148Z,8.70
2018-04-26T10:20:43.733Z,9.43
2018-04-26T10:23:12.197Z,11.43
2018-04-26T10:25:40.767Z,10.20
2018-04-26T10:28:08.386Z,8.13
2018-04-26T10:30:36.704Z,6.97
2018-04-26T10:33:04.263Z,8.13
2018-04-26T10:35:31.820Z,8.27
2018-04-26T10:37:59.351Z,8.40
2018-04-26T10:40:26.956Z,8.90
2018-04-26T10:42:54.533Z,9.07
2018-04-26T10:45:22.144Z,8.80
2018-04-26T10:47:49.704Z,9.73
2018-04-26T10:50:17.273Z,10.80
2018-04-26T10:52:44.834Z,12.18
2018-04-26T10:55:12.382Z,10.80
2018-04-26T10:57:39.994Z,12.73
2018-04-26T11:00:07.579Z,12.30
2018-04-26T11:02:35.153Z,13.60
2018-04-26T11:05:02.750Z,13.43
2018-04-26T11:07:30.338Z,13.67
2018-04-26T11:09:57.908Z,14.07
2018-04-26T11:12:25.496Z,13.03
2018-04-26T11:14:53.051Z,12.20
2018-04-26T11:17:20.622Z,6.90
2018-04-26T11:19:48.204Z,8.57
2018-04-26T11:22:15.776Z,9.03
2018-04-26T11:24:43.340Z,9.10
2018-04-26T11:27:10.921Z,7.00
2018-04-26T11:29:38.456Z,5.13
2018-04-26T11:32:06.038Z,4.00
2018-04-26T11:34:34.402Z,5.67
2018-04-26T11:37:01.976Z,6.30
2018-04-26T11:39:29.547Z,5.03
2018-04-26T11:41:57.139Z,6.23
2018-04-26T11:44:24.719Z,5.23
2018-04-26T11:46:52.321Z,5.50
2018-04-26T11:49:19.903Z,6.53
2018-04-26T11:51:47.496Z,6.40
2018-04-26T11:54:15.060Z,6.00
2018-04-26T11:56:42.663Z,7.20
2018-04-26T11:59:10.314Z,8.47
2018-04-26T12:01:37.939Z,9.47
2018-04-26T12:04:05.547Z,9.30
2018-04-26T12:06:33.131Z,8.77
2018-04-26T12:09:01.474Z,10.07
2018-04-26T12:11:29.077Z,8.83
2018-04-26T12:13:57.444Z,9.10
2018-04-26T12:16:25.049Z,9.60
2018-04-26T12:18:52.649Z,9.47
2018-04-26T12:21:20.204Z,9.63
2018-04-26T12:23:47.907Z,8.63
2018-04-26T12:26:15.503Z,6.03
2018-04-26T12:28:43.197Z,7.03
2018-04-26T12:31:10.756Z,7.13
2018-04-26T12:33:38.358Z,6.13
2018-04-26T12:36:05.946Z,6.90
2018-04-26T12:38:33.745Z,6.80
2018-04-26T12:41:01.329Z,6.77
2018-04-26T12:43:30.013Z,6.40
2018-04-26T12:45:58.514Z,7.83
2018-04-26T12:48:26.280Z,7.70
2018-04-26T12:50:53.825Z,6.57
2018-04-26T12:53:21.520Z,7.60
2018-04-26T12:55:49.931Z,7.80
2018-04-26T12:58:17.540Z,7.70
2018-04-26T13:00:45.100Z,7.20
2018-04-26T13:03:12.730Z,8.50
2018-04-26T13:05:40.336Z,7.00
2018-04-26T13:08:08.021Z,8.23
2018-04-26T13:10:36.972Z,7.77
2018-04-26T13:13:06.063Z,8.30
2018-04-26T13:15:33.808Z,8.40
2018-04-26T13:18:02.921Z,7.77
2018-04-26T13:20:31.049Z,8.40
2018-04-26T13:22:58.899Z,9.10
2018-04-26T13:25:27.965Z,9.60
2018-04-26T13:27:55.543Z,9.43
2018-04-26T13:30:23.112Z,10.00
2018-04-26T13:32:50.815Z,8.73
2018-04-26T13:35:19.162Z,12.83
2018-04-26T13:37:46.808Z,12.10
2018-04-26T13:40:15.203Z,10.90
2018-04-26T13:42:42.753Z,9.70
2018-04-26T13:45:10.766Z,9.40
2018-04-26T13:47:38.981Z,10.80
2018-04-26T13:50:06.688Z,10.20
2018-04-26T13:52:34.265Z,8.63
2018-04-26T13:55:02.648Z,8.90
2018-04-26T13:57:30.228Z,7.77
2018-04-26T13:59:57.814Z,7.60
2018-04-26T14:02:25.409Z,7.47
2018-04-26T14:04:53.042Z,7.27
2018-04-26T14:07:20.750Z,8.00
2018-04-26T14:09:49.239Z,7.67
2018-04-26T14:12:17.619Z,9.07
2018-04-26T14:14:46.023Z,10.17
2018-04-26T14:17:13.805Z,9.13
2018-04-26T14:19:41.502Z,11.55
2018-04-26T14:22:09.398Z,10.47
2018-04-26T14:24:37.300Z,10.20
2018-04-26T14:27:05.154Z,9.50
2018-04-26T14:29:33.720Z,8.00
2018-04-26T14:32:02.265Z,8.60
2018-04-26T14:34:30.841Z,9.00
2018-04-26T14:36:58.885Z,8.70
2018-04-26T14:39:27.263Z,10.40
2018-04-26T14:41:55.738Z,9.67
2018-04-26T14:44:24.654Z,11.03
2018-04-26T14:49:26.973Z,9.53
2018-04-26T14:51:55.384Z,10.87
2018-04-26T14:54:24.586Z,8.03
2018-04-26T14:56:53.051Z,8.17
2018-04-26T14:59:21.452Z,8.13
2018-04-26T15:01:49.732Z,9.80
2018-04-26T15:04:18.121Z,9.43
2018-04-26T15:06:46.965Z,8.17
2018-04-26T15:09:15.249Z,8.70
2018-04-26T15:11:43.526Z,9.50
2018-04-26T15:14:11.786Z,8.97
2018-04-26T15:16:40.124Z,4.23
2018-04-26T15:19:08.421Z,4.07
2018-04-26T15:21:36.940Z,4.77
2018-04-26T15:24:05.396Z,5.67
2018-04-26T15:26:33.849Z,5.50
2018-04-26T15:29:02.686Z,5.20
2018-04-26T15:31:31.105Z,6.10
2018-04-26T15:34:00.487Z,7.57
2018-04-26T15:36:29.022Z,7.17
2018-04-26T15:38:57.406Z,6.97
2018-04-26T15:41:25.745Z,8.10
2018-04-26T15:43:55.013Z,8.37
2018-04-26T15:46:24.268Z,7.30
2018-04-26T15:48:53.441Z,7.40
2018-04-26T15:51:21.652Z,5.87
2018-04-26T15:54:01.821Z,6.93
2018-04-26T15:56:54.583Z,5.72
2018-04-26T15:59:34.732Z,4.93
2018-04-26T16:05:29.798Z,4.73
2018-04-26T16:08:15.493Z,4.00
2018-04-26T16:11:01.927Z,3.30
2018-04-26T16:17:15.963Z,4.20
2018-04-26T16:20:01.654Z,3.77
2018-04-26T16:22:47.804Z,4.37
2018-04-26T16:28:35.978Z,3.50
2018-04-26T16:31:22.252Z,4.00
2018-04-26T16:34:06.241Z,4.57
2018-04-26T16:36:45.965Z,5.57
2018-04-26T16:39:16.604Z,5.30
2018-04-26T16:41:44.985Z,5.27
2018-04-26T16:44:13.221Z,4.27
2018-04-26T16:46:41.459Z,3.30
2018-04-26T16:49:09.743Z,3.13
2018-04-26T16:51:38.342Z,2.93
2018-04-26T16:54:06.877Z,2.63
2018-04-26T16:56:35.365Z,2.27
2018-04-26T16:59:03.839Z,2.60
2018-04-26T17:01:32.089Z,1.80
2018-04-26T17:04:00.535Z,2.00
2018-04-26T17:06:29.103Z,1.90
2018-04-26T17:08:58.466Z,2.20
2018-04-26T17:11:26.531Z,3.13
2018-04-26T17:13:55.673Z,3.50
2018-04-26T17:16:25.377Z,4.40
2018-04-26T17:18:53.883Z,3.07
2018-04-26T17:21:22.257Z,3.30
2018-04-26T17:23:50.678Z,3.00
2018-04-26T17:26:20.065Z,3.20
2018-04-26T17:28:48.692Z,2.97
2018-04-26T17:31:18.039Z,3.80
2018-04-26T17:33:46.709Z,3.10
2018-04-26T17:36:16.061Z,3.57
2018-04-26T17:38:44.938Z,3.23
2018-04-26T17:41:13.516Z,3.10
2018-04-26T17:43:41.919Z,4.63
2018-04-26T17:46:10.666Z,4.00
2018-04-26T17:48:39.851Z,5.27
2018-04-26T17:51:08.368Z,5.27
2018-04-26T17:53:36.843Z,5.80
2018-04-26T17:56:05.379Z,6.03
2018-04-26T17:58:34.325Z,5.63
2018-04-26T18:01:03.096Z,6.47
2018-04-26T18:03:31.586Z,6.03
2018-04-26T18:06:00.133Z,6.97
2018-04-26T18:08:29.815Z,7.53
2018-04-26T18:10:58.464Z,6.33
2018-04-26T18:13:27.069Z,6.27
2018-04-26T18:15:55.745Z,6.60
2018-04-26T18:18:24.533Z,6.23
2018-04-26T18:20:53.263Z,8.50
2018-04-26T18:23:22.603Z,6.93
2018-04-26T18:25:51.699Z,5.87
2018-04-26T18:28:20.078Z,5.73
2018-04-26T18:30:48.646Z,5.80
2018-04-26T18:33:18.181Z,5.73
2018-04-26T18:35:46.856Z,6.03
2018-04-26T18:38:15.763Z,5.40
2018-04-26T18:40:44.270Z,5.33
2018-04-26T18:43:12.835Z,6.40
2018-04-26T18:45:41.366Z,5.20
2018-04-26T18:48:09.920Z,5.67
2018-04-26T18:50:38.417Z,5.40
2018-04-26T18:53:07.858Z,5.20
2018-04-26T18:55:37.175Z,5.57
2018-04-26T18:58:05.856Z,5.70
2018-04-26T19:00:34.545Z,6.33
2018-04-26T19:03:03.070Z,6.33
2018-04-26T19:05:31.586Z,5.43
2018-04-26T19:08:00.216Z,5.10
2018-04-26T19:10:28.893Z,6.07
2018-04-26T19:12:58.213Z,5.90
2018-04-26T19:15:27.152Z,5.93
2018-04-26T19:17:55.751Z,8.07
2018-04-26T19:20:24.220Z,7.27
2018-04-26T19:22:52.807Z,8.00
2018-04-26T19:25:23.068Z,9.70
2018-04-26T19:27:52.149Z,8.63
2018-04-26T19:30:20.935Z,8.80
2018-04-26T19:32:49.537Z,7.93
2018-04-26T19:35:18.033Z,6.90
2018-04-26T19:37:46.679Z,5.70
2018-04-26T19:40:15.131Z,3.47
2018-04-26T19:42:43.777Z,3.33
2018-04-26T19:45:12.453Z,4.03
2018-04-26T19:47:41.114Z,4.13
2018-04-26T19:50:09.614Z,3.90
2018-04-26T19:52:38.397Z,2.80
2018-04-26T19:55:06.931Z,3.70
2018-04-26T19:57:35.534Z,4.10
2018-04-26T20:00:04.245Z,4.50
2018-04-26T20:02:32.780Z,5.10
2018-04-26T20:05:01.996Z,5.00
2018-04-26T20:07:31.453Z,4.50
2018-04-26T20:10:00.141Z,6.37
2018-04-26T20:12:28.625Z,7.23
2018-04-26T20:14:57.270Z,7.30
2018-04-26T20:17:25.845Z,6.27
2018-04-26T20:19:54.274Z,6.63
2018-04-26T20:22:22.970Z,7.40
2018-04-26T20:24:51.337Z,7.57
2018-04-26T20:27:19.844Z,6.90
2018-04-26T20:29:48.484Z,6.97
2018-04-26T20:32:16.776Z,8.00
2018-04-26T20:34:45.239Z,7.30
2018-04-26T20:37:13.863Z,6.80
2018-04-26T20:39:42.285Z,7.60
2018-04-26T20:42:10.966Z,5.80
2018-04-26T20:44:48.728Z,7.00
2018-04-26T20:47:17.461Z,8.00
2018-04-26T20:49:46.364Z,6.33
2018-04-26T20:52:14.897Z,6.87
2018-04-26T20:54:45.152Z,5.93
2018-04-26T20:57:14.569Z,6.15
2018-04-26T20:59:43.720Z,6.43
2018-04-26T21:02:12.195Z,6.30
2018-04-26T21:04:40.693Z,6.40
2018-04-26T21:07:09.156Z,6.20
2018-04-26T21:09:37.535Z,5.90
2018-04-26T21:12:05.415Z,6.10
2018-04-26T21:14:33.618Z,6.07
2018-04-26T21:17:01.873Z,7.27
2018-04-26T21:19:30.411Z,6.40
2018-04-26T21:21:58.836Z,6.30
2018-04-26T21:24:26.700Z,6.30
2018-04-26T21:26:54.543Z,6.80
2018-04-26T21:29:23.378Z,5.83
2018-04-26T21:31:51.064Z,6.90
2018-04-26T21:34:18.778Z,6.17
2018-04-26T21:36:46.805Z,5.67
2018-04-26T21:39:14.560Z,6.70
2018-04-26T21:41:42.251Z,6.23
2018-04-26T21:44:09.902Z,5.83
2018-04-26T21:46:37.589Z,5.67
2018-04-26T21:49:05.247Z,6.60
2018-04-26T21:51:38.513Z,7.07
2018-04-26T21:54:11.878Z,6.10
2018-04-26T21:56:45.155Z,4.93
2018-04-26T21:59:19.247Z,5.27
2018-04-26T22:01:52.705Z,4.60
2018-04-26T22:04:25.852Z,4.57
2018-04-26T22:06:53.613Z,4.33
2018-04-26T22:09:21.271Z,4.60
2018-04-26T22:11:48.955Z,5.10
2018-04-26T22:14:16.590Z,5.28
2018-04-26T22:16:44.232Z,4.80
2018-04-26T22:19:11.895Z,4.23
2018-04-26T22:21:39.543Z,4.10
2018-04-26T22:24:07.199Z,3.70
2018-04-26T22:26:35.444Z,4.10
2018-04-26T22:29:03.092Z,3.53
2018-04-26T22:31:30.750Z,3.23
2018-04-26T22:33:58.422Z,4.50
2018-04-26T22:36:26.097Z,3.30
2018-04-26T22:38:53.758Z,3.23
2018-04-26T22:41:21.600Z,4.50
2018-04-26T22:43:49.997Z,3.10
2018-04-26T22:46:17.631Z,3.77
2018-04-26T22:48:45.300Z,3.27
2018-04-26T22:51:13.731Z,3.23
2018-04-26T22:53:42.336Z,3.43
2018-04-26T22:56:10.003Z,3.40
2018-04-26T22:58:37.648Z,3.20
2018-04-26T23:01:05.297Z,4.77
2018-04-26T23:03:32.959Z,3.40
2018-04-26T23:06:00.620Z,4.30
2018-04-26T23:08:28.292Z,4.18
2018-04-26T23:10:55.966Z,4.43
2018-04-26T23:13:23.617Z,4.20
2018-04-26T23:15:51.294Z,3.87
2018-04-26T23:18:19.958Z,3.73
2018-04-26T23:20:47.588Z,3.40
2018-04-26T23:23:15.238Z,3.77
2018-04-26T23:25:42.899Z,4.00
2018-04-26T23:28:11.278Z,3.47
2018-04-26T23:30:38.936Z,4.90
2018-04-26T23:33:07.494Z,3.90
2018-04-26T23:35:35.788Z,4.00
2018-04-26T23:38:03.405Z,4.20
2018-04-26T23:40:31.066Z,3.63
2018-04-26T23:42:58.703Z,3.77
2018-04-26T23:45:26.378Z,3.67
2018-04-26T23:47:54.052Z,3.60
2018-04-26T23:50:21.694Z,3.43
2018-04-26T23:52:49.330Z,3.97
2018-04-26T23:55:17.748Z,5.80
2018-04-26T23:57:45.406Z,4.20
